Willard, WI (54493)

4:12 AM CDT on August 31, 2015 (GMT -0500)
Clear Creek Estates/Sigel Township/Cadott, WI | | Change Station
CLOSE
Current Station
Personal Weather Station
Location: Cadott, WI
Elevation: 1007 ft
Nearby Weather Stations
Active Advisory: Special Statement

Elev 1007 ft 44.91 °N, 91.14 °W | Updated 2 minutes ago

Fog
Fog
59.2 °F
Feels Like 59.2 °F
N
1.7
Wind Variable Wind from SSE

Today
High -- | Low -- °F
--% Chance of Precip.
Yesterday
High -- | Low -- °F
Precip. -- in
6:24 AM 7:42 PM
Waning Gibbous, 96% visible
Pressure 30.01 in
Visibility 0.2 miles
Clouds
Dew Point 59 °F
Humidity 99%
Rainfall 0.00 in
Snow Depth Not available.
UV Not available.
Pollen 9.60 out of 12
Air Quality Not available.
Flu Activity Not available.
METAR KMFI 310854Z AUTO 23003KT M1/4SM FG VV001 16/15 A3002 RMK AO2 SLP161 T01610150 53002
Pressure 30.01 in
Visibility 0.2 miles
Clouds
Dew Point 59 °F
Humidity 99%
Rainfall 0.00 in
Snow Depth Not available.
UV Not available.
Pollen 9.60 out of 12
Air Quality Not available.
Flu Activity Not available.
METAR KMFI 310854Z AUTO 23003KT M1/4SM FG VV001 16/15 A3002 RMK AO2 SLP161 T01610150 53002

10-Day Weather Forecast

×

Almanac

Astronomy

Aug. 31, 2015 Rise Set
Actual Time
Civil Twilight
Nautical Twilight
Astronomical Twilight
Moon
Length of Visible Light
Length of Day
Tomorrow will be .
, % of the Moon is Illuminated

Today's Extremes

State Highs State Lows

Community

WunderPhotos

Upload Photos

1,851,227 photos uploaded!

WunderBlogs® & News

Nearby

Air Quality

  Air Quality AQ Index Pollutant
Not available.

Snow Depth

Station Depth Elevation

Earthquake Activity

City Distance Mag. Time & Date
Minimum magnitude displayed is 2.5.

Coastal Water Temperatures

Place Temperature

Stations

Nearby Weather Stations

Station Location Temp. Windchill Dew Point Humidity Wind Precip. Elev Updated Type
                   
Special Statement
Statement as of 2:57 AM CDT on August 31, 2015

... Patchy dense fog early this morning...

Look for patchy dense fog to continue across the sand country of
central Wisconsin early this morning. If traveling... watch out for
reduced visibility which may drop to 1/4 mile at times. Slow down
and use caution.


Das

257 am CDT Mon Aug 31 2015

... Patchy dense fog early this morning...

Look for patchy dense fog to continue across the sand country of
central Wisconsin early this morning. If traveling... watch out for
reduced visibility which may drop to 1/4 mile at times. Slow down
and use caution.


Das